sensor_id;sensor_type;location;lat;lon;timestamp;pressure;altitude;pressure_sealevel;temperature;humidity
57114;BME280;42994;51.606;9.988;2023-01-29T00:01:08;100271.41;;;-4.43;100.00
57114;BME280;42994;51.606;9.988;2023-01-29T00:03:35;100281.03;;;-4.43;100.00
57114;BME280;42994;51.606;9.988;2023-01-29T00:06:04;100277.53;;;-4.23;100.00
57114;BME280;42994;51.606;9.988;2023-01-29T00:08:33;100271.88;;;-4.33;100.00
57114;BME280;42994;51.606;9.988;2023-01-29T00:11:00;100272.13;;;-4.39;100.00
57114;BME280;42994;51.606;9.988;2023-01-29T00:13:27;100263.50;;;-4.41;100.00
57114;BME280;42994;51.606;9.988;2023-01-29T00:15:54;100274.81;;;-4.41;100.00
57114;BME280;42994;51.606;9.988;2023-01-29T00:18:21;100264.72;;;-4.30;100.00
57114;BME280;42994;51.606;9.988;2023-01-29T00:20:48;100263.22;;;-4.35;100.00
57114;BME280;42994;51.606;9.988;2023-01-29T00:23:14;100257.50;;;-4.43;100.00
57114;BME280;42994;51.606;9.988;2023-01-29T00:25:43;100253.94;;;-4.42;100.00
57114;BME280;42994;51.606;9.988;2023-01-29T00:28:10;100254.06;;;-4.46;100.00
57114;BME280;42994;51.606;9.988;2023-01-29T00:30:37;100254.22;;;-4.49;100.00
57114;BME280;42994;51.606;9.988;2023-01-29T00:33:04;100258.38;;;-4.45;100.00
57114;BME280;42994;51.606;9.988;2023-01-29T00:35:31;100255.94;;;-4.49;100.00
57114;BME280;42994;51.606;9.988;2023-01-29T00:37:58;100255.50;;;-4.59;100.00
57114;BME280;42994;51.606;9.988;2023-01-29T00:40:25;100250.88;;;-4.52;100.00
57114;BME280;42994;51.606;9.988;2023-01-29T00:42:53;100248.44;;;-4.57;100.00
57114;BME280;42994;51.606;9.988;2023-01-29T00:45:37;100244.44;;;-4.66;100.00
57114;BME280;42994;51.606;9.988;2023-01-29T00:48:05;100239.81;;;-4.59;100.00
57114;BME280;42994;51.606;9.988;2023-01-29T00:50:31;100239.28;;;-4.67;100.00
57114;BME280;42994;51.606;9.988;2023-01-29T00:52:58;100237.06;;;-4.56;100.00
57114;BME280;42994;51.606;9.988;2023-01-29T00:55:24;100230.06;;;-4.55;100.00
57114;BME280;42994;51.606;9.988;2023-01-29T00:57:51;100228.22;;;-4.53;100.00
57114;BME280;42994;51.606;9.988;2023-01-29T01:00:20;100223.94;;;-4.54;100.00
57114;BME280;42994;51.606;9.988;2023-01-29T01:02:46;100230.50;;;-4.46;100.00
57114;BME280;42994;51.606;9.988;2023-01-29T01:05:30;100228.47;;;-4.39;100.00
57114;BME280;42994;51.606;9.988;2023-01-29T01:07:57;100240.72;;;-4.39;100.00
57114;BME280;42994;51.606;9.988;2023-01-29T01:10:25;100250.41;;;-4.41;100.00
57114;BME280;42994;51.606;9.988;2023-01-29T01:12:54;100233.00;;;-4.42;100.00
57114;BME280;42994;51.606;9.988;2023-01-29T01:15:24;100245.38;;;-4.46;100.00
57114;BME280;42994;51.606;9.988;2023-01-29T01:17:53;100239.94;;;-4.41;100.00
57114;BME280;42994;51.606;9.988;2023-01-29T01:20:20;100230.59;;;-4.47;100.00
57114;BME280;42994;51.606;9.988;2023-01-29T01:22:47;100227.09;;;-4.48;100.00
57114;BME280;42994;51.606;9.988;2023-01-29T01:25:14;100227.09;;;-4.48;100.00
57114;BME280;42994;51.606;9.988;2023-01-29T01:27:41;100226.22;;;-4.47;100.00
57114;BME280;42994;51.606;9.988;2023-01-29T01:30:10;100226.22;;;-4.47;100.00
57114;BME280;42994;51.606;9.988;2023-01-29T01:32:39;100235.63;;;-4.42;100.00
57114;BME280;42994;51.606;9.988;2023-01-29T01:35:07;100237.06;;;-4.35;100.00
57114;BME280;42994;51.606;9.988;2023-01-29T01:37:34;100228.41;;;-4.37;100.00
57114;BME280;42994;51.606;9.988;2023-01-29T01:40:04;100237.56;;;-4.48;100.00
57114;BME280;42994;51.606;9.988;2023-01-29T01:42:37;100227.59;;;-4.38;100.00
57114;BME280;42994;51.606;9.988;2023-01-29T01:45:07;100220.75;;;-4.42;100.00
57114;BME280;42994;51.606;9.988;2023-01-29T01:47:40;100223.91;;;-4.34;100.00
57114;BME280;42994;51.606;9.988;2023-01-29T01:50:10;100229.97;;;-4.33;100.00
57114;BME280;42994;51.606;9.988;2023-01-29T01:52:41;100231.81;;;-4.35;100.00
57114;BME280;42994;51.606;9.988;2023-01-29T01:55:11;100223.78;;;-4.31;100.00
57114;BME280;42994;51.606;9.988;2023-01-29T01:57:39;100221.00;;;-4.28;100.00
57114;BME280;42994;51.606;9.988;2023-01-29T02:00:10;100216.81;;;-4.32;100.00
57114;BME280;42994;51.606;9.988;2023-01-29T02:02:41;100213.22;;;-4.29;100.00
57114;BME280;42994;51.606;9.988;2023-01-29T02:05:28;100212.25;;;-4.27;100.00
57114;BME280;42994;51.606;9.988;2023-01-29T02:08:15;100202.13;;;-4.34;100.00
57114;BME280;42994;51.606;9.988;2023-01-29T02:11:02;100196.88;;;-4.34;100.00
57114;BME280;42994;51.606;9.988;2023-01-29T02:13:31;100200.28;;;-4.32;100.00
57114;BME280;42994;51.606;9.988;2023-01-29T02:15:57;100191.44;;;-4.30;100.00
57114;BME280;42994;51.606;9.988;2023-01-29T02:18:25;100191.38;;;-4.28;100.00
57114;BME280;42994;51.606;9.988;2023-01-29T02:21:04;100200.72;;;-4.22;100.00
57114;BME280;42994;51.606;9.988;2023-01-29T02:23:54;100197.25;;;-4.23;100.00
57114;BME280;42994;51.606;9.988;2023-01-29T02:26:41;100202.84;;;-4.51;100.00
57114;BME280;42994;51.606;9.988;2023-01-29T02:29:17;100195.59;;;-4.45;100.00
57114;BME280;42994;51.606;9.988;2023-01-29T02:31:56;100202.41;;;-4.61;100.00
57114;BME280;42994;51.606;9.988;2023-01-29T02:34:33;100197.28;;;-4.43;100.00
57114;BME280;42994;51.606;9.988;2023-01-29T02:37:24;100190.41;;;-4.46;100.00
57114;BME280;42994;51.606;9.988;2023-01-29T02:39:58;100190.03;;;-4.57;100.00
57114;BME280;42994;51.606;9.988;2023-01-29T02:42:34;100195.00;;;-4.51;100.00
57114;BME280;42994;51.606;9.988;2023-01-29T02:45:09;100211.69;;;-4.54;100.00
57114;BME280;42994;51.606;9.988;2023-01-29T02:47:41;100196.47;;;-4.46;100.00
57114;BME280;42994;51.606;9.988;2023-01-29T02:50:15;100210.13;;;-4.58;100.00
57114;BME280;42994;51.606;9.988;2023-01-29T02:52:45;100197.41;;;-4.47;100.00
57114;BME280;42994;51.606;9.988;2023-01-29T02:55:23;100204.50;;;-4.49;100.00
57114;BME280;42994;51.606;9.988;2023-01-29T02:57:54;100204.44;;;-4.47;100.00
57114;BME280;42994;51.606;9.988;2023-01-29T03:00:27;100209.66;;;-4.68;100.00
57114;BME280;42994;51.606;9.988;2023-01-29T03:02:58;100213.38;;;-4.73;100.00
57114;BME280;42994;51.606;9.988;2023-01-29T03:05:30;100206.47;;;-4.74;100.00
57114;BME280;42994;51.606;9.988;2023-01-29T03:08:03;100216.91;;;-4.54;100.00
57114;BME280;42994;51.606;9.988;2023-01-29T03:10:36;100213.97;;;-4.67;100.00
57114;BME280;42994;51.606;9.988;2023-01-29T03:13:08;100219.84;;;-4.82;100.00
57114;BME280;42994;51.606;9.988;2023-01-29T03:15:42;100201.53;;;-4.82;100.00
57114;BME280;42994;51.606;9.988;2023-01-29T03:18:32;100203.91;;;-4.55;100.00
57114;BME280;42994;51.606;9.988;2023-01-29T03:21:07;100192.00;;;-4.63;100.00
57114;BME280;42994;51.606;9.988;2023-01-29T03:23:52;100190.44;;;-4.67;100.00
57114;BME280;42994;51.606;9.988;2023-01-29T03:26:40;100186.03;;;-4.66;100.00
57114;BME280;42994;51.606;9.988;2023-01-29T03:29:31;100184.34;;;-4.67;100.00
57114;BME280;42994;51.606;9.988;2023-01-29T03:32:22;100198.69;;;-4.76;100.00
57114;BME280;42994;51.606;9.988;2023-01-29T03:34:57;100193.81;;;-4.65;100.00
57114;BME280;42994;51.606;9.988;2023-01-29T03:37:29;100202.34;;;-4.59;100.00
57114;BME280;42994;51.606;9.988;2023-01-29T03:40:01;100207.25;;;-4.72;100.00
57114;BME280;42994;51.606;9.988;2023-01-29T03:42:50;100198.28;;;-4.87;100.00
57114;BME280;42994;51.606;9.988;2023-01-29T03:45:21;100191.66;;;-4.75;100.00
57114;BME280;42994;51.606;9.988;2023-01-29T03:48:01;100193.63;;;-4.80;100.00
57114;BME280;42994;51.606;9.988;2023-01-29T03:50:35;100201.75;;;-4.66;100.00
57114;BME280;42994;51.606;9.988;2023-01-29T03:53:10;100201.41;;;-4.79;100.00
57114;BME280;42994;51.606;9.988;2023-01-29T03:55:48;100201.34;;;-4.77;100.00
57114;BME280;42994;51.606;9.988;2023-01-29T03:58:23;100199.78;;;-4.81;100.00
57114;BME280;42994;51.606;9.988;2023-01-29T04:00:54;100200.81;;;-4.86;100.00
57114;BME280;42994;51.606;9.988;2023-01-29T04:03:25;100213.66;;;-4.79;100.00
57114;BME280;42994;51.606;9.988;2023-01-29T04:05:59;100196.06;;;-4.76;100.00
57114;BME280;42994;51.606;9.988;2023-01-29T04:08:44;100183.69;;;-4.72;100.00
57114;BME280;42994;51.606;9.988;2023-01-29T04:11:15;100200.56;;;-4.79;100.00
57114;BME280;42994;51.606;9.988;2023-01-29T04:13:44;100190.78;;;-4.74;100.00
57114;BME280;42994;51.606;9.988;2023-01-29T04:16:18;100192.72;;;-4.79;100.00
57114;BME280;42994;51.606;9.988;2023-01-29T04:18:59;100182.25;;;-4.59;100.00
57114;BME280;42994;51.606;9.988;2023-01-29T04:21:31;100178.97;;;-4.64;100.00
57114;BME280;42994;51.606;9.988;2023-01-29T04:23:58;100170.22;;;-4.63;100.00
57114;BME280;42994;51.606;9.988;2023-01-29T04:26:34;100175.56;;;-4.66;100.00
57114;BME280;42994;51.606;9.988;2023-01-29T04:29:19;100167.13;;;-4.52;100.00
57114;BME280;42994;51.606;9.988;2023-01-29T04:31:56;100177.00;;;-4.59;100.00
57114;BME280;42994;51.606;9.988;2023-01-29T04:34:35;100169.19;;;-4.40;100.00
57114;BME280;42994;51.606;9.988;2023-01-29T04:37:12;100159.66;;;-4.41;100.00
57114;BME280;42994;51.606;9.988;2023-01-29T04:39:48;100167.59;;;-4.23;100.00
57114;BME280;42994;51.606;9.988;2023-01-29T04:42:27;100160.72;;;-4.26;100.00
57114;BME280;42994;51.606;9.988;2023-01-29T04:44:59;100151.88;;;-4.23;100.00
57114;BME280;42994;51.606;9.988;2023-01-29T04:47:33;100146.81;;;-4.27;100.00
57114;BME280;42994;51.606;9.988;2023-01-29T04:50:09;100125.50;;;-4.19;100.00
57114;BME280;42994;51.606;9.988;2023-01-29T04:52:44;100124.31;;;-4.12;100.00
57114;BME280;42994;51.606;9.988;2023-01-29T04:55:19;100130.75;;;-4.19;100.00
57114;BME280;42994;51.606;9.988;2023-01-29T04:57:53;100128.75;;;-4.14;100.00
57114;BME280;42994;51.606;9.988;2023-01-29T05:00:25;100127.81;;;-4.13;100.00
57114;BME280;42994;51.606;9.988;2023-01-29T05:02:53;100124.00;;;-4.06;100.00
57114;BME280;42994;51.606;9.988;2023-01-29T05:05:23;100116.72;;;-3.99;100.00
57114;BME280;42994;51.606;9.988;2023-01-29T05:07:49;100116.66;;;-3.97;100.00
57114;BME280;42994;51.606;9.988;2023-01-29T05:10:18;100111.13;;;-3.91;100.00
57114;BME280;42994;51.606;9.988;2023-01-29T05:12:47;100106.81;;;-3.92;100.00
57114;BME280;42994;51.606;9.988;2023-01-29T05:15:19;100093.00;;;-3.96;100.00
57114;BME280;42994;51.606;9.988;2023-01-29T05:17:48;100083.06;;;-3.89;100.00
57114;BME280;42994;51.606;9.988;2023-01-29T05:20:15;100079.41;;;-3.85;100.00
57114;BME280;42994;51.606;9.988;2023-01-29T05:22:43;100084.78;;;-3.88;100.00
57114;BME280;42994;51.606;9.988;2023-01-29T05:25:23;100084.91;;;-3.91;100.00
57114;BME280;42994;51.606;9.988;2023-01-29T05:27:51;100080.31;;;-3.86;100.00
57114;BME280;42994;51.606;9.988;2023-01-29T05:30:29;100076.41;;;-3.77;100.00
57114;BME280;42994;51.606;9.988;2023-01-29T05:32:56;100073.88;;;-3.79;100.00
57114;BME280;42994;51.606;9.988;2023-01-29T05:35:22;100068.63;;;-3.79;100.00
57114;BME280;42994;51.606;9.988;2023-01-29T05:37:50;100069.53;;;-3.80;100.00
57114;BME280;42994;51.606;9.988;2023-01-29T05:40:17;100065.16;;;-3.79;100.00
57114;BME280;42994;51.606;9.988;2023-01-29T05:42:44;100068.63;;;-3.79;100.00
57114;BME280;42994;51.606;9.988;2023-01-29T05:45:10;100080.63;;;-3.75;100.00
57114;BME280;42994;51.606;9.988;2023-01-29T05:47:37;100085.88;;;-3.75;100.00
57114;BME280;42994;51.606;9.988;2023-01-29T05:50:04;100087.72;;;-3.77;100.00
57114;BME280;42994;51.606;9.988;2023-01-29T05:52:31;100100.69;;;-3.74;100.00
57114;BME280;42994;51.606;9.988;2023-01-29T05:54:59;100106.78;;;-3.73;100.00
57114;BME280;42994;51.606;9.988;2023-01-29T05:57:26;100122.50;;;-3.73;100.00
57114;BME280;42994;51.606;9.988;2023-01-29T05:59:52;100122.56;;;-3.75;100.00
57114;BME280;42994;51.606;9.988;2023-01-29T06:02:19;100117.19;;;-3.72;100.00
57114;BME280;42994;51.606;9.988;2023-01-29T06:04:45;100119.03;;;-3.74;100.00
57114;BME280;42994;51.606;9.988;2023-01-29T06:07:12;100126.72;;;-3.71;100.00
57114;BME280;42994;51.606;9.988;2023-01-29T06:09:38;100126.53;;;-3.66;100.00
57114;BME280;42994;51.606;9.988;2023-01-29T06:12:06;100132.47;;;-3.62;100.00
57114;BME280;42994;51.606;9.988;2023-01-29T06:14:33;100131.56;;;-3.61;100.00
57114;BME280;42994;51.606;9.988;2023-01-29T06:16:59;100120.97;;;-3.60;100.00
57114;BME280;42994;51.606;9.988;2023-01-29T06:19:26;100125.31;;;-3.59;100.00
57114;BME280;42994;51.606;9.988;2023-01-29T06:21:52;100125.22;;;-3.57;100.00
57114;BME280;42994;51.606;9.988;2023-01-29T06:24:19;100133.09;;;-3.57;100.00
57114;BME280;42994;51.606;9.988;2023-01-29T06:26:46;100139.19;;;-3.57;100.00
57114;BME280;42994;51.606;9.988;2023-01-29T06:29:14;100140.66;;;-3.51;100.00
57114;BME280;42994;51.606;9.988;2023-01-29T06:31:40;100152.13;;;-3.54;100.00
57114;BME280;42994;51.606;9.988;2023-01-29T06:34:07;100146.84;;;-3.52;100.00
57114;BME280;42994;51.606;9.988;2023-01-29T06:36:33;100139.66;;;-3.49;100.00
57114;BME280;42994;51.606;9.988;2023-01-29T06:39:00;100149.28;;;-3.49;100.00
57114;BME280;42994;51.606;9.988;2023-01-29T06:41:27;100160.53;;;-3.47;100.00
57114;BME280;42994;51.606;9.988;2023-01-29T06:43:53;100159.63;;;-3.46;100.00
57114;BME280;42994;51.606;9.988;2023-01-29T06:46:21;100166.47;;;-3.43;100.00
57114;BME280;42994;51.606;9.988;2023-01-29T06:48:48;100166.47;;;-3.43;100.00
57114;BME280;42994;51.606;9.988;2023-01-29T06:51:15;100176.13;;;-3.44;100.00
57114;BME280;42994;51.606;9.988;2023-01-29T06:53:41;100178.75;;;-3.44;100.00
57114;BME280;42994;51.606;9.988;2023-01-29T06:56:08;100182.22;;;-3.43;100.00
57114;BME280;42994;51.606;9.988;2023-01-29T06:58:35;100187.44;;;-3.43;100.00
57114;BME280;42994;51.606;9.988;2023-01-29T07:01:03;100184.75;;;-3.42;100.00
57114;BME280;42994;51.606;9.988;2023-01-29T07:03:31;100171.59;;;-3.40;100.00
57114;BME280;42994;51.606;9.988;2023-01-29T07:05:58;100149.78;;;-3.41;100.00
57114;BME280;42994;51.606;9.988;2023-01-29T07:08:25;100142.75;;;-3.40;100.00
57114;BME280;42994;51.606;9.988;2023-01-29T07:10:52;100134.81;;;-3.39;100.00
57114;BME280;42994;51.606;9.988;2023-01-29T07:13:19;100119.00;;;-3.37;100.00
57114;BME280;42994;51.606;9.988;2023-01-29T07:15:45;100104.19;;;-3.38;100.00
57114;BME280;42994;51.606;9.988;2023-01-29T07:18:12;100110.28;;;-3.38;100.00
57114;BME280;42994;51.606;9.988;2023-01-29T07:20:41;100106.81;;;-3.38;100.00
57114;BME280;42994;51.606;9.988;2023-01-29T07:23:10;100116.41;;;-3.37;100.00
57114;BME280;42994;51.606;9.988;2023-01-29T07:25:37;100129.44;;;-3.36;100.00
57114;BME280;42994;51.606;9.988;2023-01-29T07:28:04;100121.47;;;-3.34;100.00
57114;BME280;42994;51.606;9.988;2023-01-29T07:30:31;100114.53;;;-3.35;100.00
57114;BME280;42994;51.606;9.988;2023-01-29T07:33:00;100122.34;;;-3.34;100.00
57114;BME280;42994;51.606;9.988;2023-01-29T07:35:27;100103.03;;;-3.33;100.00
57114;BME280;42994;51.606;9.988;2023-01-29T07:37:54;100104.75;;;-3.32;100.00
57114;BME280;42994;51.606;9.988;2023-01-29T07:40:21;100129.13;;;-3.30;100.00
57114;BME280;42994;51.606;9.988;2023-01-29T07:42:48;100127.25;;;-3.28;100.00
57114;BME280;42994;51.606;9.988;2023-01-29T07:45:14;100128.97;;;-3.26;100.00
57114;BME280;42994;51.606;9.988;2023-01-29T07:47:41;100132.19;;;-3.21;100.00
57114;BME280;42994;51.606;9.988;2023-01-29T07:50:09;100130.19;;;-3.16;100.00
57114;BME280;42994;51.606;9.988;2023-01-29T07:52:35;100143.94;;;-3.11;100.00
57114;BME280;42994;51.606;9.988;2023-01-29T07:55:04;100148.16;;;-3.09;100.00
57114;BME280;42994;51.606;9.988;2023-01-29T07:57:30;100145.63;;;-3.10;100.00
57114;BME280;42994;51.606;9.988;2023-01-29T07:59:57;100152.50;;;-3.07;100.00
57114;BME280;42994;51.606;9.988;2023-01-29T08:02:23;100151.97;;;-2.97;100.00
57114;BME280;42994;51.606;9.988;2023-01-29T08:04:50;100159.13;;;-3.00;100.00
57114;BME280;42994;51.606;9.988;2023-01-29T08:07:17;100161.28;;;-2.91;100.00
57114;BME280;42994;51.606;9.988;2023-01-29T08:09:43;100160.75;;;-2.98;100.00
57114;BME280;42994;51.606;9.988;2023-01-29T08:12:11;100158.91;;;-2.96;100.00
57114;BME280;42994;51.606;9.988;2023-01-29T08:14:38;100146.72;;;-2.97;100.00
57114;BME280;42994;51.606;9.988;2023-01-29T08:17:04;100146.00;;;-3.00;100.00
57114;BME280;42994;51.606;9.988;2023-01-29T08:19:31;100156.44;;;-2.99;100.00
57114;BME280;42994;51.606;9.988;2023-01-29T08:21:57;100159.97;;;-3.00;100.00
57114;BME280;42994;51.606;9.988;2023-01-29T08:24:24;100159.22;;;-2.84;100.00
57114;BME280;42994;51.606;9.988;2023-01-29T08:26:50;100145.00;;;-2.80;100.00
57114;BME280;42994;51.606;9.988;2023-01-29T08:29:18;100144.09;;;-2.79;100.00
57114;BME280;42994;51.606;9.988;2023-01-29T08:31:45;100128.50;;;-2.82;100.00
57114;BME280;42994;51.606;9.988;2023-01-29T08:34:11;100143.47;;;-2.84;100.00
57114;BME280;42994;51.606;9.988;2023-01-29T08:36:38;100145.22;;;-2.85;100.00
57114;BME280;42994;51.606;9.988;2023-01-29T08:39:05;100142.53;;;-2.83;100.00
57114;BME280;42994;51.606;9.988;2023-01-29T08:41:31;100143.41;;;-2.83;100.00
57114;BME280;42994;51.606;9.988;2023-01-29T08:43:58;100134.59;;;-2.82;100.00
57114;BME280;42994;51.606;9.988;2023-01-29T08:46:28;100124.09;;;-2.82;100.00
57114;BME280;42994;51.606;9.988;2023-01-29T08:48:54;100109.09;;;-2.80;100.00
57114;BME280;42994;51.606;9.988;2023-01-29T08:51:21;100103.03;;;-2.80;100.00
57114;BME280;42994;51.606;9.988;2023-01-29T08:53:49;100087.28;;;-2.80;100.00
57114;BME280;42994;51.606;9.988;2023-01-29T08:56:16;100089.75;;;-2.77;100.00
57114;BME280;42994;51.606;9.988;2023-01-29T08:58:42;100085.25;;;-2.75;100.00
57114;BME280;42994;51.606;9.988;2023-01-29T09:01:10;100086.88;;;-2.73;100.00
57114;BME280;42994;51.606;9.988;2023-01-29T09:03:39;100105.84;;;-2.67;100.00
57114;BME280;42994;51.606;9.988;2023-01-29T09:06:08;100114.63;;;-2.68;100.00
57114;BME280;42994;51.606;9.988;2023-01-29T09:08:35;100114.75;;;-2.70;100.00
57114;BME280;42994;51.606;9.988;2023-01-29T09:11:02;100130.16;;;-2.64;100.00
57114;BME280;42994;51.606;9.988;2023-01-29T09:13:29;100124.00;;;-2.63;100.00
57114;BME280;42994;51.606;9.988;2023-01-29T09:15:58;100124.75;;;-2.61;100.00
57114;BME280;42994;51.606;9.988;2023-01-29T09:18:24;100122.81;;;-2.57;100.00
57114;BME280;42994;51.606;9.988;2023-01-29T09:20:53;100117.66;;;-2.59;100.00
57114;BME280;42994;51.606;9.988;2023-01-29T09:23:19;100107.91;;;-2.57;100.00
57114;BME280;42994;51.606;9.988;2023-01-29T09:25:46;100103.34;;;-2.53;100.00
57114;BME280;42994;51.606;9.988;2023-01-29T09:28:13;100100.03;;;-2.57;100.00
57114;BME280;42994;51.606;9.988;2023-01-29T09:30:41;100100.56;;;-2.50;100.00
57114;BME280;42994;51.606;9.988;2023-01-29T09:33:08;100100.66;;;-2.52;100.00
57114;BME280;42994;51.606;9.988;2023-01-29T09:35:35;100112.53;;;-2.44;100.00
57114;BME280;42994;51.606;9.988;2023-01-29T09:38:03;100115.16;;;-2.44;100.00
57114;BME280;42994;51.606;9.988;2023-01-29T09:40:34;100113.22;;;-2.41;100.00
57114;BME280;42994;51.606;9.988;2023-01-29T09:43:06;100115.66;;;-2.38;100.00
57114;BME280;42994;51.606;9.988;2023-01-29T09:45:37;100113.72;;;-2.34;100.00
57114;BME280;42994;51.606;9.988;2023-01-29T09:48:10;100096.09;;;-2.32;100.00
57114;BME280;42994;51.606;9.988;2023-01-29T09:50:40;100107.94;;;-2.25;100.00
57114;BME280;42994;51.606;9.988;2023-01-29T09:53:17;100096.25;;;-2.19;100.00
57114;BME280;42994;51.606;9.988;2023-01-29T09:55:48;100088.50;;;-2.21;100.00
57114;BME280;42994;51.606;9.988;2023-01-29T09:58:18;100087.38;;;-2.17;100.00
57114;BME280;42994;51.606;9.988;2023-01-29T10:00:52;100088.81;;;-2.11;100.00
57114;BME280;42994;51.606;9.988;2023-01-29T10:03:42;100085.16;;;-2.08;100.00
57114;BME280;42994;51.606;9.988;2023-01-29T10:06:35;100071.03;;;-2.06;100.00
57114;BME280;42994;51.606;9.988;2023-01-29T10:09:26;100072.47;;;-2.00;100.00
57114;BME280;42994;51.606;9.988;2023-01-29T10:12:04;100055.59;;;-1.96;100.00
57114;BME280;42994;51.606;9.988;2023-01-29T10:14:38;100051.84;;;-1.92;100.00
57114;BME280;42994;51.606;9.988;2023-01-29T10:17:22;100049.75;;;-1.85;100.00
57114;BME280;42994;51.606;9.988;2023-01-29T10:20:12;100045.16;;;-1.82;100.00
57114;BME280;42994;51.606;9.988;2023-01-29T10:22:51;100033.53;;;-1.78;100.00
57114;BME280;42994;51.606;9.988;2023-01-29T10:25:22;100038.63;;;-1.75;100.00
57114;BME280;42994;51.606;9.988;2023-01-29T10:27:50;100032.00;;;-1.66;100.00
57114;BME280;42994;51.606;9.988;2023-01-29T10:30:28;100034.53;;;-1.64;100.00
57114;BME280;42994;51.606;9.988;2023-01-29T10:33:00;100024.22;;;-1.53;100.00
57114;BME280;42994;51.606;9.988;2023-01-29T10:35:30;100026.00;;;-1.53;100.00
57114;BME280;42994;51.606;9.988;2023-01-29T10:38:14;100029.56;;;-1.55;100.00
57114;BME280;42994;51.606;9.988;2023-01-29T10:40:47;100014.06;;;-1.59;100.00
57114;BME280;42994;51.606;9.988;2023-01-29T10:43:20;100015.00;;;-1.60;100.00
57114;BME280;42994;51.606;9.988;2023-01-29T10:45:56;100023.16;;;-1.65;100.00
57114;BME280;42994;51.606;9.988;2023-01-29T10:48:39;100012.72;;;-1.66;100.00
57114;BME280;42994;51.606;9.988;2023-01-29T10:51:19;100017.97;;;-1.66;100.00
57114;BME280;42994;51.606;9.988;2023-01-29T10:54:00;100009.91;;;-1.63;100.00
57114;BME280;42994;51.606;9.988;2023-01-29T10:56:49;100013.97;;;-1.58;100.00
57114;BME280;42994;51.606;9.988;2023-01-29T10:59:38;100010.41;;;-1.57;100.00
57114;BME280;42994;51.606;9.988;2023-01-29T11:02:13;100000.91;;;-1.59;100.00
57114;BME280;42994;51.606;9.988;2023-01-29T11:04:40;100008.47;;;-1.53;100.00
57114;BME280;42994;51.606;9.988;2023-01-29T11:07:07;100003.13;;;-1.51;100.00
57114;BME280;42994;51.606;9.988;2023-01-29T11:09:38;100001.03;;;-1.46;100.00
57114;BME280;42994;51.606;9.988;2023-01-29T11:12:12;99990.63;;;-1.48;100.00
57114;BME280;42994;51.606;9.988;2023-01-29T11:14:43;99992.31;;;-1.47;100.00
57114;BME280;42994;51.606;9.988;2023-01-29T11:17:16;99994.69;;;-1.42;100.00
57114;BME280;42994;51.606;9.988;2023-01-29T11:19:45;99990.09;;;-1.39;100.00
57114;BME280;42994;51.606;9.988;2023-01-29T11:22:14;99989.78;;;-1.34;100.00
57114;BME280;42994;51.606;9.988;2023-01-29T11:24:41;99984.28;;;-1.29;100.00
57114;BME280;42994;51.606;9.988;2023-01-29T11:27:16;99977.78;;;-1.24;100.00
57114;BME280;42994;51.606;9.988;2023-01-29T11:29:47;99974.97;;;-1.21;100.00
57114;BME280;42994;51.606;9.988;2023-01-29T11:32:23;99983.34;;;-1.14;100.00
57114;BME280;42994;51.606;9.988;2023-01-29T11:34:59;99973.75;;;-1.15;100.00
57114;BME280;42994;51.606;9.988;2023-01-29T11:37:34;99969.91;;;-1.09;100.00
57114;BME280;42994;51.606;9.988;2023-01-29T11:40:37;99967.94;;;-1.06;100.00
57114;BME280;42994;51.606;9.988;2023-01-29T11:43:17;99956.63;;;-1.08;100.00
57114;BME280;42994;51.606;9.988;2023-01-29T11:45:45;99953.09;;;-1.07;100.00
57114;BME280;42994;51.606;9.988;2023-01-29T11:48:14;99953.16;;;-1.08;100.00
57114;BME280;42994;51.606;9.988;2023-01-29T11:50:42;99955.06;;;-1.10;100.00
57114;BME280;42994;51.606;9.988;2023-01-29T11:53:37;99949.88;;;-1.12;100.00
57114;BME280;42994;51.606;9.988;2023-01-29T11:56:21;99946.03;;;-1.06;100.00
57114;BME280;42994;51.606;9.988;2023-01-29T11:58:50;99940.97;;;-1.09;100.00
57114;BME280;42994;51.606;9.988;2023-01-29T12:01:29;99937.38;;;-1.08;100.00
57114;BME280;42994;51.606;9.988;2023-01-29T12:03:58;99929.31;;;-1.05;100.00
57114;BME280;42994;51.606;9.988;2023-01-29T12:06:31;99929.88;;;-1.00;100.00
57114;BME280;42994;51.606;9.988;2023-01-29T12:09:00;99919.25;;;-0.99;100.00
57114;BME280;42994;51.606;9.988;2023-01-29T12:11:29;99914.63;;;-0.95;100.00
57114;BME280;42994;51.606;9.988;2023-01-29T12:13:59;99913.88;;;-0.97;100.00
57114;BME280;42994;51.606;9.988;2023-01-29T12:16:29;99913.03;;;-0.98;100.00
57114;BME280;42994;51.606;9.988;2023-01-29T12:19:06;99911.38;;;-0.99;100.00
57114;BME280;42994;51.606;9.988;2023-01-29T12:21:38;99905.03;;;-0.96;100.00
57114;BME280;42994;51.606;9.988;2023-01-29T12:24:13;99904.00;;;-0.93;100.00
57114;BME280;42994;51.606;9.988;2023-01-29T12:26:46;99892.34;;;-0.89;100.00
57114;BME280;42994;51.606;9.988;2023-01-29T12:29:24;99905.69;;;-0.92;100.00
57114;BME280;42994;51.606;9.988;2023-01-29T12:32:00;99892.34;;;-0.89;100.00
57114;BME280;42994;51.606;9.988;2023-01-29T12:34:36;99882.94;;;-0.93;100.00
57114;BME280;42994;51.606;9.988;2023-01-29T12:37:14;99887.28;;;-0.92;100.00
57114;BME280;42994;51.606;9.988;2023-01-29T12:39:43;99881.53;;;-0.85;100.00
57114;BME280;42994;51.606;9.988;2023-01-29T12:42:13;99883.16;;;-0.97;100.00
57114;BME280;42994;51.606;9.988;2023-01-29T12:44:44;99867.81;;;-0.90;100.00
57114;BME280;42994;51.606;9.988;2023-01-29T12:47:15;99873.72;;;-0.86;100.00
57114;BME280;42994;51.606;9.988;2023-01-29T12:49:45;99857.75;;;-0.83;100.00
57114;BME280;42994;51.606;9.988;2023-01-29T12:52:16;99861.44;;;-0.86;100.00
57114;BME280;42994;51.606;9.988;2023-01-29T12:54:47;99854.78;;;-0.79;100.00
57114;BME280;42994;51.606;9.988;2023-01-29T12:57:20;99850.31;;;-0.76;100.00
57114;BME280;42994;51.606;9.988;2023-01-29T12:59:52;99851.03;;;-0.74;100.00
57114;BME280;42994;51.606;9.988;2023-01-29T13:02:31;99845.13;;;-0.78;100.00